Time,TemperatureF,DewpointF,PressureIn,WindDirection,WindDirectionDegrees,WindSpeedMPH,WindSpeedGustMPH,Humidity,HourlyPrecipIn,Conditions,Clouds,dailyrainin,SoftwareType,DateUTC
2013-07-31 00:03:00,71.0,38.8,30.24,NNE,22,4.0,5.0,31,0.00,,,0.00,Weather View 32 v70,2013-07-31 06:03:00,
2013-07-31 00:08:00,71.0,37.9,30.24,NNE,22,3.0,5.0,30,0.00,,,0.00,Weather View 32 v70,2013-07-31 06:08:00,
2013-07-31 00:13:00,71.0,37.1,30.24,NNE,22,3.0,5.0,29,0.00,,,0.00,Weather View 32 v70,2013-07-31 06:13:00,
2013-07-31 00:18:00,71.0,37.9,30.24,NNW,337,4.0,6.0,30,0.00,,,0.00,Weather View 32 v70,2013-07-31 06:18:00,
2013-07-31 00:23:00,71.0,37.9,30.24,NNW,337,5.0,6.0,30,0.00,,,0.00,Weather View 32 v70,2013-07-31 06:23:00,
2013-07-31 00:28:00,71.0,37.9,30.24,North,360,1.0,6.0,30,0.00,,,0.00,Weather View 32 v70,2013-07-31 06:28:00,
2013-07-31 00:33:00,71.0,38.8,30.24,North,360,0.0,6.0,31,0.00,,,0.00,Weather View 32 v70,2013-07-31 06:33:00,
2013-07-31 00:38:00,71.0,38.8,30.24,North,360,1.0,6.0,31,0.00,,,0.00,Weather View 32 v70,2013-07-31 06:38:00,
2013-07-31 00:43:00,70.0,38.7,30.24,North,360,1.0,6.0,32,0.00,,,0.00,Weather View 32 v70,2013-07-31 06:43:00,
2013-07-31 00:48:00,70.0,41.0,30.24,North,360,3.0,6.0,35,0.00,,,0.00,Weather View 32 v70,2013-07-31 06:48:00,
2013-07-31 00:53:00,70.0,40.3,30.24,North,360,0.0,6.0,34,0.00,,,0.00,Weather View 32 v70,2013-07-31 06:53:00,
2013-07-31 00:58:00,69.0,38.6,30.25,North,360,2.0,6.0,33,0.00,,,0.00,Weather View 32 v70,2013-07-31 06:58:00,
2013-07-31 01:03:00,69.0,37.8,30.25,North,360,3.0,6.0,32,0.00,,,0.00,Weather View 32 v70,2013-07-31 07:03:00,
2013-07-31 01:08:00,69.0,37.8,30.24,North,360,6.0,6.0,32,0.00,,,0.00,Weather View 32 v70,2013-07-31 07:08:00,
2013-07-31 01:13:00,70.0,37.9,30.24,NNE,22,6.0,8.0,31,0.00,,,0.00,Weather View 32 v70,2013-07-31 07:13:00,
2013-07-31 01:18:00,70.0,37.9,30.24,NNE,22,6.0,8.0,31,0.00,,,0.00,Weather View 32 v70,2013-07-31 07:18:00,
2013-07-31 01:23:00,70.0,37.9,30.24,NNE,22,4.0,8.0,31,0.00,,,0.00,Weather View 32 v70,2013-07-31 07:23:00,
2013-07-31 01:28:00,70.0,37.9,30.24,NNE,22,7.0,8.0,31,0.00,,,0.00,Weather View 32 v70,2013-07-31 07:28:00,
2013-07-31 01:33:00,70.0,37.9,30.24,NE,45,5.0,8.0,31,0.00,,,0.00,Weather View 32 v70,2013-07-31 07:33:00,
2013-07-31 01:38:00,69.0,37.0,30.24,NE,45,8.0,8.0,31,0.00,,,0.00,Weather View 32 v70,2013-07-31 07:38:00,
2013-07-31 01:43:00,69.0,37.8,30.24,NE,45,5.0,8.0,32,0.00,,,0.00,Weather View 32 v70,2013-07-31 07:43:00,
2013-07-31 01:48:00,69.0,38.6,30.24,NE,45,3.0,8.0,33,0.00,,,0.00,Weather View 32 v70,2013-07-31 07:48:00,
2013-07-31 01:53:00,69.0,40.9,30.24,NE,45,2.0,8.0,36,0.00,,,0.00,Weather View 32 v70,2013-07-31 07:53:00,
2013-07-31 01:58:00,68.0,40.0,30.24,NE,45,3.0,8.0,36,0.00,,,0.00,Weather View 32 v70,2013-07-31 07:58:00,
2013-07-31 02:03:00,68.0,40.0,30.24,NE,45,2.0,8.0,36,0.00,,,0.00,Weather View 32 v70,2013-07-31 08:03:00,
2013-07-31 02:08:00,67.0,39.1,30.24,NE,45,2.0,8.0,36,0.00,,,0.00,Weather View 32 v70,2013-07-31 08:08:00,
2013-07-31 02:13:00,67.0,39.1,30.24,NE,45,1.0,8.0,36,0.00,,,0.00,Weather View 32 v70,2013-07-31 08:13:00,
2013-07-31 02:18:00,67.0,39.8,30.25,NE,45,0.0,8.0,37,0.00,,,0.00,Weather View 32 v70,2013-07-31 08:18:00,
2013-07-31 02:23:00,66.0,39.6,30.25,NE,45,3.0,8.0,38,0.00,,,0.00,Weather View 32 v70,2013-07-31 08:23:00,
2013-07-31 02:28:00,66.0,40.3,30.25,NE,45,3.0,8.0,39,0.00,,,0.00,Weather View 32 v70,2013-07-31 08:28:00,
2013-07-31 02:33:00,66.0,40.3,30.25,NE,45,3.0,8.0,39,0.00,,,0.00,Weather View 32 v70,2013-07-31 08:33:00,
2013-07-31 02:38:00,65.0,39.4,30.25,NE,45,3.0,8.0,39,0.00,,,0.00,Weather View 32 v70,2013-07-31 08:38:00,
2013-07-31 02:43:00,65.0,39.4,30.25,NE,45,3.0,5.0,39,0.00,,,0.00,Weather View 32 v70,2013-07-31 08:43:00,
2013-07-31 02:48:00,65.0,40.0,30.25,NE,45,4.0,5.0,40,0.00,,,0.00,Weather View 32 v70,2013-07-31 08:48:00,
2013-07-31 02:53:00,65.0,39.4,30.25,NE,45,3.0,5.0,39,0.00,,,0.00,Weather View 32 v70,2013-07-31 08:53:00,
2013-07-31 02:58:00,65.0,40.0,30.25,NE,45,1.0,5.0,40,0.00,,,0.00,Weather View 32 v70,2013-07-31 08:58:00,
2013-07-31 03:03:00,65.0,41.9,30.25,SE,135,4.0,5.0,43,0.00,,,0.00,Weather View 32 v70,2013-07-31 09:03:00,
2013-07-31 03:08:00,64.0,41.6,30.25,East,90,3.0,7.0,44,0.00,,,0.00,Weather View 32 v70,2013-07-31 09:08:00,
2013-07-31 03:13:00,64.0,42.2,30.25,East,90,4.0,7.0,45,0.00,,,0.00,Weather View 32 v70,2013-07-31 09:13:00,
2013-07-31 03:18:00,63.0,41.8,30.25,East,90,3.0,7.0,46,0.00,,,0.00,Weather View 32 v70,2013-07-31 09:18:00,
2013-07-31 03:23:00,63.0,41.8,30.25,East,90,4.0,7.0,46,0.00,,,0.00,Weather View 32 v70,2013-07-31 09:23:00,
2013-07-31 03:28:00,63.0,42.4,30.26,East,90,4.0,7.0,47,0.00,,,0.00,Weather View 32 v70,2013-07-31 09:28:00,
2013-07-31 03:33:00,62.0,40.9,30.26,East,90,3.0,7.0,46,0.00,,,0.00,Weather View 32 v70,2013-07-31 09:33:00,
2013-07-31 03:38:00,62.0,40.9,30.25,East,90,3.0,7.0,46,0.00,,,0.00,Weather View 32 v70,2013-07-31 09:38:00,
2013-07-31 03:43:00,62.0,40.9,30.25,East,90,3.0,7.0,46,0.00,,,0.00,Weather View 32 v70,2013-07-31 09:43:00,
2013-07-31 03:48:00,62.0,40.9,30.26,East,90,3.0,7.0,46,0.00,,,0.00,Weather View 32 v70,2013-07-31 09:48:00,
2013-07-31 03:53:00,62.0,41.5,30.26,East,90,3.0,7.0,47,0.00,,,0.00,Weather View 32 v70,2013-07-31 09:53:00,
2013-07-31 03:58:00,62.0,41.5,30.26,East,90,0.0,7.0,47,0.00,,,0.00,Weather View 32 v70,2013-07-31 09:58:00,
2013-07-31 04:03:00,62.0,42.6,30.26,East,90,0.0,7.0,49,0.00,,,0.00,Weather View 32 v70,2013-07-31 10:03:00,
2013-07-31 04:08:00,62.0,41.5,30.26,East,90,0.0,7.0,47,0.00,,,0.00,Weather View 32 v70,2013-07-31 10:08:00,
2013-07-31 04:13:00,62.0,41.5,30.26,East,90,2.0,6.0,47,0.00,,,0.00,Weather View 32 v70,2013-07-31 10:13:00,
2013-07-31 04:18:00,61.0,41.1,30.26,East,90,2.0,5.0,48,0.00,,,0.00,Weather View 32 v70,2013-07-31 10:18:00,
2013-07-31 04:23:00,61.0,42.2,30.26,East,90,4.0,5.0,50,0.00,,,0.00,Weather View 32 v70,2013-07-31 10:23:00,
2013-07-31 04:28:00,61.0,42.7,30.26,East,90,4.0,5.0,51,0.00,,,0.00,Weather View 32 v70,2013-07-31 10:28:00,
2013-07-31 04:33:00,61.0,43.2,30.26,East,90,4.0,5.0,52,0.00,,,0.00,Weather View 32 v70,2013-07-31 10:33:00,
2013-07-31 04:38:00,61.0,43.7,30.26,East,90,3.0,5.0,53,0.00,,,0.00,Weather View 32 v70,2013-07-31 10:38:00,
2013-07-31 04:43:00,60.0,43.3,30.26,East,90,3.0,5.0,54,0.00,,,0.00,Weather View 32 v70,2013-07-31 10:43:00,
2013-07-31 04:48:00,60.0,42.8,30.27,East,90,2.0,5.0,53,0.00,,,0.00,Weather View 32 v70,2013-07-31 10:48:00,
2013-07-31 04:53:00,60.0,42.8,30.27,East,90,4.0,5.0,53,0.00,,,0.00,Weather View 32 v70,2013-07-31 10:53:00,
2013-07-31 04:58:00,60.0,43.3,30.27,East,90,4.0,5.0,54,0.00,,,0.00,Weather View 32 v70,2013-07-31 10:58:00,
2013-07-31 05:03:00,60.0,43.3,30.27,East,90,3.0,5.0,54,0.00,,,0.00,Weather View 32 v70,2013-07-31 11:03:00,
2013-07-31 05:08:00,60.0,43.3,30.27,East,90,4.0,5.0,54,0.00,,,0.00,Weather View 32 v70,2013-07-31 11:08:00,
2013-07-31 05:13:00,60.0,43.3,30.27,East,90,3.0,5.0,54,0.00,,,0.00,Weather View 32 v70,2013-07-31 11:13:00,
2013-07-31 05:18:00,59.0,42.8,30.28,East,90,4.0,5.0,55,0.00,,,0.00,Weather View 32 v70,2013-07-31 11:18:00,
2013-07-31 05:23:00,59.0,42.8,30.28,East,90,1.0,5.0,55,0.00,,,0.00,Weather View 32 v70,2013-07-31 11:23:00,
2013-07-31 05:28:00,59.0,43.3,30.28,East,90,3.0,5.0,56,0.00,,,0.00,Weather View 32 v70,2013-07-31 11:28:00,
2013-07-31 05:33:00,59.0,43.8,30.28,East,90,3.0,5.0,57,0.00,,,0.00,Weather View 32 v70,2013-07-31 11:33:00,
2013-07-31 05:38:00,59.0,43.8,30.28,East,90,4.0,5.0,57,0.00,,,0.00,Weather View 32 v70,2013-07-31 11:38:00,
2013-07-31 05:43:00,59.0,43.8,30.28,East,90,4.0,6.0,57,0.00,,,0.00,Weather View 32 v70,2013-07-31 11:43:00,
2013-07-31 05:48:00,59.0,42.8,30.29,East,90,3.0,6.0,55,0.00,,,0.00,Weather View 32 v70,2013-07-31 11:48:00,
2013-07-31 05:53:00,59.0,42.8,30.29,East,90,3.0,6.0,55,0.00,,,0.00,Weather View 32 v70,2013-07-31 11:53:00,
2013-07-31 05:58:00,59.0,43.3,30.29,East,90,6.0,6.0,56,0.00,,,0.00,Weather View 32 v70,2013-07-31 11:58:00,
2013-07-31 06:03:00,59.0,43.3,30.29,East,90,5.0,7.0,56,0.00,,,0.00,Weather View 32 v70,2013-07-31 12:03:00,
2013-07-31 06:08:00,59.0,42.3,30.30,East,90,6.0,9.0,54,0.00,,,0.00,Weather View 32 v70,2013-07-31 12:08:00,
2013-07-31 06:13:00,59.0,41.9,30.30,East,90,6.0,9.0,53,0.00,,,0.00,Weather View 32 v70,2013-07-31 12:13:00,
2013-07-31 06:18:00,59.0,41.9,30.30,East,90,4.0,9.0,53,0.00,,,0.00,Weather View 32 v70,2013-07-31 12:18:00,
2013-07-31 06:23:00,59.0,41.4,30.30,East,90,5.0,9.0,52,0.00,,,0.00,Weather View 32 v70,2013-07-31 12:23:00,
2013-07-31 06:28:00,59.0,41.4,30.29,East,90,3.0,9.0,52,0.00,,,0.00,Weather View 32 v70,2013-07-31 12:28:00,
2013-07-31 06:33:00,59.0,41.9,30.29,East,90,3.0,9.0,53,0.00,,,0.00,Weather View 32 v70,2013-07-31 12:33:00,
2013-07-31 06:38:00,59.0,40.3,30.30,East,90,5.0,9.0,50,0.00,,,0.00,Weather View 32 v70,2013-07-31 12:38:00,
2013-07-31 06:43:00,60.0,41.3,30.30,East,90,5.0,9.0,50,0.00,,,0.00,Weather View 32 v70,2013-07-31 12:43:00,
2013-07-31 06:48:00,60.0,40.7,30.30,East,90,4.0,9.0,49,0.00,,,0.00,Weather View 32 v70,2013-07-31 12:48:00,
2013-07-31 06:53:00,61.0,40.6,30.30,East,90,7.0,10.0,47,0.00,,,0.00,Weather View 32 v70,2013-07-31 12:53:00,
2013-07-31 06:58:00,62.0,40.9,30.30,ENE,67,7.0,10.0,46,0.00,,,0.00,Weather View 32 v70,2013-07-31 12:58:00,
2013-07-31 07:03:00,62.0,40.4,30.30,East,90,8.0,10.0,45,0.00,,,0.00,Weather View 32 v70,2013-07-31 13:03:00,
2013-07-31 07:08:00,63.0,40.7,30.30,East,90,10.0,11.0,44,0.00,,,0.00,Weather View 32 v70,2013-07-31 13:08:00,
2013-07-31 07:13:00,63.0,40.7,30.30,East,90,6.0,11.0,44,0.00,,,0.00,Weather View 32 v70,2013-07-31 13:13:00,
2013-07-31 07:18:00,64.0,41.6,30.30,East,90,6.0,11.0,44,0.00,,,0.00,Weather View 32 v70,2013-07-31 13:18:00,
2013-07-31 07:23:00,63.0,41.3,30.30,East,90,9.0,11.0,45,0.00,,,0.00,Weather View 32 v70,2013-07-31 13:23:00,
2013-07-31 07:28:00,63.0,41.3,30.30,East,90,8.0,11.0,45,0.00,,,0.00,Weather View 32 v70,2013-07-31 13:28:00,
2013-07-31 07:34:00,63.0,41.3,30.30,East,90,6.0,11.0,45,0.00,,,0.00,Weather View 32 v70,2013-07-31 13:34:00,
2013-07-31 07:39:00,64.0,41.6,30.30,East,90,8.0,12.0,44,0.00,,,0.00,Weather View 32 v70,2013-07-31 13:39:00,
2013-07-31 07:44:00,64.0,40.4,30.30,ESE,112,8.0,12.0,42,0.00,,,0.00,Weather View 32 v70,2013-07-31 13:44:00,
2013-07-31 07:49:00,65.0,40.0,30.30,SE,135,6.0,12.0,40,0.00,,,0.00,Weather View 32 v70,2013-07-31 13:49:00,
2013-07-31 07:54:00,66.0,40.3,30.30,SE,135,5.0,12.0,39,0.00,,,0.00,Weather View 32 v70,2013-07-31 13:54:00,
2013-07-31 07:59:00,66.0,40.3,30.30,East,90,5.0,12.0,39,0.00,,,0.00,Weather View 32 v70,2013-07-31 13:59:00,
2013-07-31 08:04:00,67.0,40.5,30.30,SE,135,4.0,12.0,38,0.00,,,0.00,Weather View 32 v70,2013-07-31 14:04:00,
2013-07-31 08:09:00,67.0,39.8,30.30,SE,135,3.0,12.0,37,0.00,,,0.00,Weather View 32 v70,2013-07-31 14:09:00,
2013-07-31 08:14:00,68.0,40.0,30.30,East,90,5.0,12.0,36,0.00,,,0.00,Weather View 32 v70,2013-07-31 14:14:00,
2013-07-31 08:19:00,68.0,40.0,30.30,East,90,3.0,12.0,36,0.00,,,0.00,Weather View 32 v70,2013-07-31 14:19:00,
2013-07-31 08:24:00,69.0,40.1,30.30,ESE,112,4.0,12.0,35,0.00,,,0.00,Weather View 32 v70,2013-07-31 14:24:00,
2013-07-31 08:29:00,69.0,39.4,30.30,ESE,112,7.0,12.0,34,0.00,,,0.00,Weather View 32 v70,2013-07-31 14:29:00,
2013-07-31 08:34:00,70.0,39.5,30.30,ESE,112,5.0,12.0,33,0.00,,,0.00,Weather View 32 v70,2013-07-31 14:34:00,
2013-07-31 08:40:00,71.0,40.4,30.30,SE,135,7.0,9.0,33,0.00,,,0.00,Weather View 32 v70,2013-07-31 14:40:00,
2013-07-31 08:45:00,71.0,40.4,30.30,SE,135,5.0,9.0,33,0.00,,,0.00,Weather View 32 v70,2013-07-31 14:45:00,
2013-07-31 08:50:00,72.0,40.5,30.30,East,90,6.0,9.0,32,0.00,,,0.00,Weather View 32 v70,2013-07-31 14:50:00,
2013-07-31 08:55:00,73.0,40.5,30.30,East,90,5.0,9.0,31,0.00,,,0.00,Weather View 32 v70,2013-07-31 14:55:00,
2013-07-31 09:00:00,73.0,39.7,30.29,East,90,4.0,9.0,30,0.00,,,0.00,Weather View 32 v70,2013-07-31 15:00:00,
2013-07-31 09:05:00,74.0,40.5,30.29,East,90,5.0,9.0,30,0.00,,,0.00,Weather View 32 v70,2013-07-31 15:05:00,
2013-07-31 09:10:00,75.0,41.4,30.29,SE,135,5.0,9.0,30,0.00,,,0.00,Weather View 32 v70,2013-07-31 15:10:00,
2013-07-31 09:15:00,75.0,41.4,30.29,SE,135,5.0,9.0,30,0.00,,,0.00,Weather View 32 v70,2013-07-31 15:15:00,
2013-07-31 09:20:00,76.0,39.5,30.29,SE,135,6.0,10.0,27,0.00,,,0.00,Weather View 32 v70,2013-07-31 15:20:00,
2013-07-31 09:25:00,77.0,41.3,30.29,East,90,5.0,13.0,28,0.00,,,0.00,Weather View 32 v70,2013-07-31 15:25:00,
2013-07-31 09:30:00,77.0,41.3,30.28,East,90,7.0,13.0,28,0.00,,,0.00,Weather View 32 v70,2013-07-31 15:30:00,
2013-07-31 09:35:00,78.0,43.1,30.28,South,180,1.0,13.0,29,0.00,,,0.00,Weather View 32 v70,2013-07-31 15:35:00,
2013-07-31 09:40:00,78.0,42.2,30.28,SE,135,4.0,13.0,28,0.00,,,0.00,Weather View 32 v70,2013-07-31 15:40:00,
2013-07-31 09:45:00,79.0,43.0,30.28,SE,135,9.0,13.0,28,0.00,,,0.00,Weather View 32 v70,2013-07-31 15:45:00,
2013-07-31 09:51:00,79.0,43.0,30.27,South,180,7.0,13.0,28,0.00,,,0.00,Weather View 32 v70,2013-07-31 15:51:00,
2013-07-31 09:56:00,79.0,42.1,30.27,SE,135,5.0,13.0,27,0.00,,,0.00,Weather View 32 v70,2013-07-31 15:56:00,
2013-07-31 10:01:00,79.0,42.1,30.27,SE,135,2.0,13.0,27,0.00,,,0.00,Weather View 32 v70,2013-07-31 16:01:00,
2013-07-31 10:06:00,80.0,41.9,30.27,South,180,2.0,13.0,26,0.00,,,0.00,Weather View 32 v70,2013-07-31 16:06:00,
2013-07-31 10:11:00,81.0,41.8,30.27,South,180,3.0,13.0,25,0.00,,,0.00,Weather View 32 v70,2013-07-31 16:11:00,
2013-07-31 10:16:00,81.0,41.8,30.27,SE,135,2.0,13.0,25,0.00,,,0.00,Weather View 32 v70,2013-07-31 16:16:00,
2013-07-31 10:21:00,82.0,41.5,30.26,SE,135,2.0,13.0,24,0.00,,,0.00,Weather View 32 v70,2013-07-31 16:21:00,
2013-07-31 10:26:00,82.0,41.5,30.26,South,180,6.0,10.0,24,0.00,,,0.00,Weather View 32 v70,2013-07-31 16:26:00,
2013-07-31 10:31:00,83.0,41.3,30.26,South,180,4.0,9.0,23,0.00,,,0.00,Weather View 32 v70,2013-07-31 16:31:00,
2013-07-31 10:36:00,84.0,41.0,30.26,South,180,4.0,9.0,22,0.00,,,0.00,Weather View 32 v70,2013-07-31 16:36:00,
2013-07-31 10:41:00,85.0,40.6,30.26,SE,135,4.0,9.0,21,0.00,,,0.00,Weather View 32 v70,2013-07-31 16:41:00,
2013-07-31 10:46:00,85.0,39.3,30.26,East,90,1.0,9.0,20,0.00,,,0.00,Weather View 32 v70,2013-07-31 16:46:00,
2013-07-31 10:51:00,86.0,40.1,30.25,South,180,4.0,9.0,20,0.00,,,0.00,Weather View 32 v70,2013-07-31 16:51:00,
2013-07-31 10:56:00,87.0,39.6,30.25,South,180,3.0,9.0,19,0.00,,,0.00,Weather View 32 v70,2013-07-31 16:56:00,
2013-07-31 11:01:00,88.0,39.1,30.24,SSW,202,7.0,9.0,18,0.00,,,0.00,Weather View 32 v70,2013-07-31 17:01:00,
2013-07-31 11:06:00,88.0,39.1,30.24,South,180,6.0,9.0,18,0.00,,,0.00,Weather View 32 v70,2013-07-31 17:06:00,
2013-07-31 11:11:00,89.0,38.4,30.24,South,180,4.0,9.0,17,0.00,,,0.00,Weather View 32 v70,2013-07-31 17:11:00,
2013-07-31 11:16:00,89.0,38.4,30.24,South,180,6.0,9.0,17,0.00,,,0.00,Weather View 32 v70,2013-07-31 17:16:00,
2013-07-31 11:21:00,89.0,38.4,30.23,South,180,3.0,9.0,17,0.00,,,0.00,Weather View 32 v70,2013-07-31 17:21:00,
2013-07-31 11:26:00,89.0,36.8,30.23,East,90,6.0,10.0,16,0.00,,,0.00,Weather View 32 v70,2013-07-31 17:26:00,
2013-07-31 11:31:00,90.0,37.6,30.23,South,180,4.0,10.0,16,0.00,,,0.00,Weather View 32 v70,2013-07-31 17:31:00,
2013-07-31 11:36:00,90.0,37.6,30.23,SSE,157,5.0,10.0,16,0.00,,,0.00,Weather View 32 v70,2013-07-31 17:36:00,
2013-07-31 11:41:00,90.0,37.6,30.22,SE,135,3.0,10.0,16,0.00,,,0.00,Weather View 32 v70,2013-07-31 17:41:00,
2013-07-31 11:46:00,91.0,36.8,30.22,East,90,1.0,10.0,15,0.00,,,0.00,Weather View 32 v70,2013-07-31 17:46:00,
2013-07-31 11:51:00,91.0,35.1,30.22,SW,225,3.0,10.0,14,0.00,,,0.00,Weather View 32 v70,2013-07-31 17:51:00,
2013-07-31 11:56:00,92.0,37.6,30.22,SW,225,0.0,10.0,15,0.00,,,0.00,Weather View 32 v70,2013-07-31 17:56:00,
2013-07-31 12:01:00,92.0,34.0,30.21,SW,225,2.0,10.0,13,0.00,,,0.00,Weather View 32 v70,2013-07-31 18:01:00,
2013-07-31 12:06:00,93.0,32.7,30.21,SE,135,6.0,10.0,12,0.00,,,0.00,Weather View 32 v70,2013-07-31 18:06:00,
2013-07-31 12:11:00,93.0,32.7,30.20,East,90,0.0,10.0,12,0.00,,,0.00,Weather View 32 v70,2013-07-31 18:11:00,
2013-07-31 12:16:00,94.0,31.3,30.20,South,180,1.0,10.0,11,0.00,,,0.00,Weather View 32 v70,2013-07-31 18:16:00,
2013-07-31 12:21:00,94.0,31.3,30.20,SE,135,6.0,10.0,11,0.00,,,0.00,Weather View 32 v70,2013-07-31 18:21:00,
2013-07-31 12:26:00,93.0,30.6,30.20,SW,225,3.0,10.0,11,0.00,,,0.00,Weather View 32 v70,2013-07-31 18:26:00,
2013-07-31 12:31:00,94.0,31.3,30.20,West,270,1.0,10.0,11,0.00,,,0.00,Weather View 32 v70,2013-07-31 18:31:00,
2013-07-31 12:37:00,95.0,27.2,30.19,SE,135,3.0,10.0,9,0.00,,,0.00,Weather View 32 v70,2013-07-31 18:37:00,
2013-07-31 12:42:00,94.0,26.4,30.19,SE,135,5.0,11.0,9,0.00,,,0.00,Weather View 32 v70,2013-07-31 18:42:00,
2013-07-31 12:47:00,94.0,26.4,30.19,SW,225,7.0,11.0,9,0.00,,,0.00,Weather View 32 v70,2013-07-31 18:47:00,
2013-07-31 12:52:00,94.0,26.4,30.19,SE,135,0.0,11.0,9,0.00,,,0.00,Weather View 32 v70,2013-07-31 18:52:00,
2013-07-31 12:57:00,95.0,34.3,30.19,West,270,5.0,11.0,12,0.00,,,0.00,Weather View 32 v70,2013-07-31 18:57:00,
2013-07-31 13:02:00,94.0,26.4,30.19,SSE,157,10.0,11.0,9,0.00,,,0.00,Weather View 32 v70,2013-07-31 19:02:00,
2013-07-31 13:07:00,94.0,31.3,30.18,SSE,157,5.0,11.0,11,0.00,,,0.00,Weather View 32 v70,2013-07-31 19:07:00,
2013-07-31 13:12:00,92.0,29.8,30.18,SE,135,4.0,12.0,11,0.00,,,0.00,Weather View 32 v70,2013-07-31 19:12:00,
2013-07-31 13:17:00,93.0,30.6,30.18,SW,225,1.0,12.0,11,0.00,,,0.00,Weather View 32 v70,2013-07-31 19:17:00,
2013-07-31 13:22:00,94.0,29.0,30.18,SE,135,1.0,12.0,10,0.00,,,0.00,Weather View 32 v70,2013-07-31 19:22:00,
2013-07-31 13:27:00,94.0,29.0,30.17,South,180,6.0,12.0,10,0.00,,,0.00,Weather View 32 v70,2013-07-31 19:27:00,
2013-07-31 13:32:00,94.0,26.4,30.17,SE,135,9.0,12.0,9,0.00,,,0.00,Weather View 32 v70,2013-07-31 19:32:00,
2013-07-31 13:37:00,95.0,27.2,30.17,North,360,2.0,12.0,9,0.00,,,0.00,Weather View 32 v70,2013-07-31 19:37:00,
2013-07-31 13:42:00,95.0,36.3,30.17,West,270,6.0,13.0,13,0.00,,,0.00,Weather View 32 v70,2013-07-31 19:42:00,
2013-07-31 13:47:00,95.0,32.1,30.17,North,360,8.0,13.0,11,0.00,,,0.00,Weather View 32 v70,2013-07-31 19:47:00,
2013-07-31 13:52:00,94.0,35.5,30.16,NW,315,7.0,13.0,13,0.00,,,0.00,Weather View 32 v70,2013-07-31 19:52:00,
2013-07-31 13:57:00,95.0,29.8,30.16,SW,225,7.0,14.0,10,0.00,,,0.00,Weather View 32 v70,2013-07-31 19:57:00,
2013-07-31 14:02:00,95.0,34.3,30.16,NW,315,8.0,14.0,12,0.00,,,0.00,Weather View 32 v70,2013-07-31 20:02:00,
2013-07-31 14:07:00,95.0,29.8,30.16,NW,315,0.0,14.0,10,0.00,,,0.00,Weather View 32 v70,2013-07-31 20:07:00,
2013-07-31 14:12:00,95.0,32.1,30.16,West,270,1.0,14.0,11,0.00,,,0.00,Weather View 32 v70,2013-07-31 20:12:00,
2013-07-31 14:17:00,95.0,34.3,30.15,North,360,6.0,14.0,12,0.00,,,0.00,Weather View 32 v70,2013-07-31 20:17:00,
2013-07-31 14:22:00,95.0,38.2,30.15,WNW,292,7.0,14.0,14,0.00,,,0.00,Weather View 32 v70,2013-07-31 20:22:00,
2013-07-31 14:27:00,95.0,34.3,30.15,SW,225,11.0,14.0,12,0.00,,,0.00,Weather View 32 v70,2013-07-31 20:27:00,
2013-07-31 14:32:00,95.0,34.3,30.15,SW,225,7.0,14.0,12,0.00,,,0.00,Weather View 32 v70,2013-07-31 20:32:00,
2013-07-31 14:37:00,95.0,27.2,30.15,SW,225,10.0,14.0,9,0.00,,,0.00,Weather View 32 v70,2013-07-31 20:37:00,
2013-07-31 14:42:00,94.0,29.0,30.15,South,180,12.0,17.0,10,0.00,,,0.00,Weather View 32 v70,2013-07-31 20:42:00,
2013-07-31 14:47:00,93.0,30.6,30.14,SW,225,5.0,17.0,11,0.00,,,0.00,Weather View 32 v70,2013-07-31 20:47:00,
2013-07-31 14:52:00,93.0,25.7,30.14,SSW,202,8.0,17.0,9,0.00,,,0.00,Weather View 32 v70,2013-07-31 20:52:00,
2013-07-31 14:57:00,94.0,29.0,30.14,SW,225,10.0,17.0,10,0.00,,,0.00,Weather View 32 v70,2013-07-31 20:57:00,
2013-07-31 15:02:00,94.0,29.0,30.14,SW,225,10.0,17.0,10,0.00,,,0.00,Weather View 32 v70,2013-07-31 21:02:00,
2013-07-31 15:07:00,95.0,29.8,30.14,SW,225,9.0,17.0,10,0.00,,,0.00,Weather View 32 v70,2013-07-31 21:07:00,
2013-07-31 15:12:00,95.0,34.3,30.14,West,270,4.0,17.0,12,0.00,,,0.00,Weather View 32 v70,2013-07-31 21:12:00,
2013-07-31 15:17:00,95.0,27.2,30.12,South,180,7.0,17.0,9,0.00,,,0.00,Weather View 32 v70,2013-07-31 21:17:00,
2013-07-31 15:22:00,95.0,27.2,30.12,SW,225,10.0,17.0,9,0.00,,,0.00,Weather View 32 v70,2013-07-31 21:22:00,
2013-07-31 15:27:00,95.0,32.1,30.12,West,270,6.0,17.0,11,0.00,,,0.00,Weather View 32 v70,2013-07-31 21:27:00,
2013-07-31 15:32:00,95.0,34.3,30.12,WSW,247,5.0,17.0,12,0.00,,,0.00,Weather View 32 v70,2013-07-31 21:32:00,
2013-07-31 15:37:00,95.0,34.3,30.12,WSW,247,6.0,17.0,12,0.00,,,0.00,Weather View 32 v70,2013-07-31 21:37:00,
2013-07-31 15:42:00,95.0,32.1,30.12,WSW,247,4.0,17.0,11,0.00,,,0.00,Weather View 32 v70,2013-07-31 21:42:00,
2013-07-31 15:47:00,95.0,27.2,30.11,South,180,8.0,15.0,9,0.00,,,0.00,Weather View 32 v70,2013-07-31 21:47:00,
2013-07-31 15:52:00,95.0,29.8,30.11,West,270,3.0,15.0,10,0.00,,,0.00,Weather View 32 v70,2013-07-31 21:52:00,
2013-07-31 15:57:00,96.0,27.9,30.10,South,180,12.0,15.0,9,0.00,,,0.00,Weather View 32 v70,2013-07-31 21:57:00,
2013-07-31 16:02:00,95.0,29.8,30.10,WSW,247,7.0,15.0,10,0.00,,,0.00,Weather View 32 v70,2013-07-31 22:02:00,
2013-07-31 16:07:00,96.0,35.0,30.10,NW,315,7.0,15.0,12,0.00,,,0.00,Weather View 32 v70,2013-07-31 22:07:00,
2013-07-31 16:12:00,96.0,32.9,30.10,NW,315,7.0,15.0,11,0.00,,,0.00,Weather View 32 v70,2013-07-31 22:12:00,
2013-07-31 16:17:00,96.0,35.0,30.10,SW,225,3.0,15.0,12,0.00,,,0.00,Weather View 32 v70,2013-07-31 22:17:00,
2013-07-31 16:22:00,96.0,27.9,30.10,West,270,5.0,15.0,9,0.00,,,0.00,Weather View 32 v70,2013-07-31 22:22:00,
2013-07-31 16:27:00,96.0,27.9,30.09,SW,225,13.0,14.0,9,0.00,,,0.00,Weather View 32 v70,2013-07-31 22:27:00,
2013-07-31 16:32:00,96.0,27.9,30.09,South,180,6.0,15.0,9,0.00,,,0.00,Weather View 32 v70,2013-07-31 22:32:00,
2013-07-31 16:37:00,96.0,27.9,30.09,SW,225,8.0,15.0,9,0.00,,,0.00,Weather View 32 v70,2013-07-31 22:37:00,
2013-07-31 16:42:00,96.0,27.9,30.09,SW,225,4.0,15.0,9,0.00,,,0.00,Weather View 32 v70,2013-07-31 22:42:00,
2013-07-31 16:47:00,96.0,30.5,30.08,South,180,7.0,15.0,10,0.00,,,0.00,Weather View 32 v70,2013-07-31 22:47:00,
2013-07-31 16:52:00,96.0,32.9,30.08,SW,225,5.0,15.0,11,0.00,,,0.00,Weather View 32 v70,2013-07-31 22:52:00,
2013-07-31 16:57:00,96.0,30.5,30.08,SW,225,8.0,15.0,10,0.00,,,0.00,Weather View 32 v70,2013-07-31 22:57:00,
2013-07-31 17:03:00,96.0,32.9,30.08,SW,225,13.0,21.0,11,0.00,,,0.00,Weather View 32 v70,2013-07-31 23:03:00,
2013-07-31 17:08:00,96.0,32.9,30.08,SSW,202,10.0,21.0,11,0.00,,,0.00,Weather View 32 v70,2013-07-31 23:08:00,
2013-07-31 17:13:00,95.0,34.3,30.08,West,270,8.0,21.0,12,0.00,,,0.00,Weather View 32 v70,2013-07-31 23:13:00,
2013-07-31 17:18:00,95.0,34.3,30.08,NW,315,7.0,21.0,12,0.00,,,0.00,Weather View 32 v70,2013-07-31 23:18:00,
2013-07-31 17:24:00,94.0,31.3,30.08,SW,225,10.0,21.0,11,0.00,,,0.00,Weather View 32 v70,2013-07-31 23:24:00,
2013-07-31 17:29:00,94.0,35.5,30.08,SW,225,7.0,21.0,13,0.00,,,0.00,Weather View 32 v70,2013-07-31 23:29:00,
2013-07-31 17:34:00,94.0,33.5,30.08,SSW,202,9.0,21.0,12,0.00,,,0.00,Weather View 32 v70,2013-07-31 23:34:00,
2013-07-31 17:39:00,93.0,34.7,30.07,WSW,247,2.0,21.0,13,0.00,,,0.00,Weather View 32 v70,2013-07-31 23:39:00,
2013-07-31 17:44:00,93.0,32.7,30.07,SW,225,7.0,21.0,12,0.00,,,0.00,Weather View 32 v70,2013-07-31 23:44:00,
2013-07-31 17:49:00,93.0,32.7,30.08,SW,225,10.0,21.0,12,0.00,,,0.00,Weather View 32 v70,2013-07-31 23:49:00,
2013-07-31 17:54:00,93.0,32.7,30.08,West,270,5.0,21.0,12,0.00,,,0.00,Weather View 32 v70,2013-07-31 23:54:00,
2013-07-31 17:59:00,93.0,32.7,30.08,WSW,247,8.0,21.0,12,0.00,,,0.00,Weather View 32 v70,2013-07-31 23:59:00,
2013-07-31 18:04:00,93.0,34.7,30.08,West,270,5.0,17.0,13,0.00,,,0.00,Weather View 32 v70,2013-08-01 00:04:00,
2013-07-31 18:10:00,92.0,32.0,30.08,South,180,5.0,17.0,12,0.00,,,0.00,Weather View 32 v70,2013-08-01 00:10:00,
2013-07-31 18:15:00,92.0,32.0,30.08,SSW,202,5.0,17.0,12,0.00,,,0.00,Weather View 32 v70,2013-08-01 00:15:00,
2013-07-31 18:20:00,92.0,32.0,30.08,SW,225,7.0,17.0,12,0.00,,,0.00,Weather View 32 v70,2013-08-01 00:20:00,
2013-07-31 18:25:00,92.0,29.8,30.08,South,180,5.0,15.0,11,0.00,,,0.00,Weather View 32 v70,2013-08-01 00:25:00,
2013-07-31 18:30:00,92.0,35.8,30.07,WSW,247,1.0,15.0,14,0.00,,,0.00,Weather View 32 v70,2013-08-01 00:30:00,
2013-07-31 18:35:00,92.0,34.0,30.07,West,270,4.0,15.0,13,0.00,,,0.00,Weather View 32 v70,2013-08-01 00:35:00,
2013-07-31 18:40:00,91.0,35.1,30.08,WSW,247,7.0,13.0,14,0.00,,,0.00,Weather View 32 v70,2013-08-01 00:40:00,
2013-07-31 18:45:00,91.0,31.2,30.08,SW,225,5.0,13.0,12,0.00,,,0.00,Weather View 32 v70,2013-08-01 00:45:00,
2013-07-31 18:50:00,91.0,35.1,30.07,West,270,5.0,13.0,14,0.00,,,0.00,Weather View 32 v70,2013-08-01 00:50:00,
2013-07-31 18:56:00,91.0,33.2,30.07,SW,225,3.0,12.0,13,0.00,,,0.00,Weather View 32 v70,2013-08-01 00:56:00,
2013-07-31 19:00:00,91.0,33.2,30.07,WSW,247,8.0,12.0,13,0.00,,,0.00,Weather View 32 v70,2013-08-01 01:00:00,
2013-07-31 19:06:00,90.0,34.3,30.07,WSW,247,3.0,12.0,14,0.00,,,0.00,Weather View 32 v70,2013-08-01 01:06:00,
2013-07-31 19:11:00,90.0,37.6,30.07,SW,225,1.0,12.0,16,0.00,,,0.00,Weather View 32 v70,2013-08-01 01:11:00,
2013-07-31 19:16:00,90.0,36.0,30.07,SW,225,3.0,12.0,15,0.00,,,0.00,Weather View 32 v70,2013-08-01 01:16:00,
2013-07-31 19:21:00,90.0,36.0,30.08,West,270,7.0,11.0,15,0.00,,,0.00,Weather View 32 v70,2013-08-01 01:21:00,
2013-07-31 19:26:00,90.0,36.0,30.08,West,270,2.0,11.0,15,0.00,,,0.00,Weather View 32 v70,2013-08-01 01:26:00,
2013-07-31 19:31:00,90.0,37.6,30.08,SW,225,1.0,11.0,16,0.00,,,0.00,Weather View 32 v70,2013-08-01 01:31:00,
2013-07-31 19:36:00,90.0,36.0,30.08,SW,225,1.0,11.0,15,0.00,,,0.00,Weather View 32 v70,2013-08-01 01:36:00,
2013-07-31 19:42:00,89.0,35.2,30.08,WSW,247,6.0,11.0,15,0.00,,,0.00,Weather View 32 v70,2013-08-01 01:42:00,
2013-07-31 19:47:00,89.0,36.8,30.08,SW,225,3.0,10.0,16,0.00,,,0.00,Weather View 32 v70,2013-08-01 01:47:00,
2013-07-31 19:52:00,89.0,36.8,30.08,SW,225,3.0,10.0,16,0.00,,,0.00,Weather View 32 v70,2013-08-01 01:52:00,
2013-07-31 19:57:00,89.0,36.8,30.09,SW,225,0.0,10.0,16,0.00,,,0.00,Weather View 32 v70,2013-08-01 01:57:00,
2013-07-31 20:02:00,88.0,36.1,30.09,SW,225,2.0,10.0,16,0.00,,,0.00,Weather View 32 v70,2013-08-01 02:02:00,
2013-07-31 20:07:00,87.0,36.8,30.09,SW,225,0.0,9.0,17,0.00,,,0.00,Weather View 32 v70,2013-08-01 02:07:00,
2013-07-31 20:08:00,87.0,36.8,30.09,SW,225,0.0,9.0,17,0.00,,,0.00,Weather View 32 v70,2013-08-01 02:08:00,
2013-07-31 20:13:00,87.0,36.8,30.09,SW,225,3.0,9.0,17,0.00,,,0.00,Weather View 32 v70,2013-08-01 02:13:00,
2013-07-31 20:18:00,87.0,36.8,30.09,SW,225,3.0,9.0,17,0.00,,,0.00,Weather View 32 v70,2013-08-01 02:18:00,
2013-07-31 20:23:00,86.0,37.4,30.09,SW,225,4.0,9.0,18,0.00,,,0.00,Weather View 32 v70,2013-08-01 02:23:00,
2013-07-31 20:28:00,86.0,36.0,30.09,WSW,247,3.0,8.0,17,0.00,,,0.00,Weather View 32 v70,2013-08-01 02:28:00,
2013-07-31 20:33:00,86.0,37.4,30.09,WSW,247,1.0,8.0,18,0.00,,,0.00,Weather View 32 v70,2013-08-01 02:33:00,
2013-07-31 20:38:00,85.0,36.6,30.09,WSW,247,3.0,8.0,18,0.00,,,0.00,Weather View 32 v70,2013-08-01 02:38:00,
2013-07-31 20:43:00,85.0,36.6,30.09,WSW,247,0.0,8.0,18,0.00,,,0.00,Weather View 32 v70,2013-08-01 02:43:00,
2013-07-31 20:48:00,85.0,36.6,30.10,WSW,247,1.0,7.0,18,0.00,,,0.00,Weather View 32 v70,2013-08-01 02:48:00,
2013-07-31 20:53:00,85.0,36.6,30.10,WSW,247,3.0,7.0,18,0.00,,,0.00,Weather View 32 v70,2013-08-01 02:53:00,
2013-07-31 20:58:00,85.0,36.6,30.10,WSW,247,3.0,7.0,18,0.00,,,0.00,Weather View 32 v70,2013-08-01 02:58:00,
2013-07-31 21:03:00,84.0,35.8,30.10,WSW,247,1.0,7.0,18,0.00,,,0.00,Weather View 32 v70,2013-08-01 03:03:00,
2013-07-31 21:07:00,84.0,37.2,30.10,WSW,247,0.0,7.0,19,0.00,,,0.00,Weather View 32 v70,2013-08-01 03:07:00,
2013-07-31 21:12:00,84.0,37.2,30.10,WSW,247,0.0,7.0,19,0.00,,,0.00,Weather View 32 v70,2013-08-01 03:12:00,
2013-07-31 21:17:00,84.0,35.8,30.10,WSW,247,0.0,7.0,18,0.00,,,0.00,Weather View 32 v70,2013-08-01 03:17:00,
2013-07-31 21:18:00,84.0,35.8,30.10,WSW,247,0.0,7.0,18,0.00,,,0.00,Weather View 32 v70,2013-08-01 03:18:00,
2013-07-31 21:22:00,84.0,38.5,30.10,WSW,247,0.0,7.0,20,0.00,,,0.00,Weather View 32 v70,2013-08-01 03:22:00,
2013-07-31 21:27:00,84.0,38.5,30.11,West,270,1.0,6.0,20,0.00,,,0.00,Weather View 32 v70,2013-08-01 03:27:00,
2013-07-31 21:32:00,84.0,38.5,30.11,NW,315,3.0,4.0,20,0.00,,,0.00,Weather View 32 v70,2013-08-01 03:32:00,
2013-07-31 21:37:00,84.0,37.2,30.11,NW,315,5.0,5.0,19,0.00,,,0.00,Weather View 32 v70,2013-08-01 03:37:00,
2013-07-31 21:42:00,84.0,35.8,30.11,NW,315,4.0,6.0,18,0.00,,,0.00,Weather View 32 v70,2013-08-01 03:42:00,
2013-07-31 21:48:00,84.0,35.8,30.11,NW,315,4.0,6.0,18,0.00,,,0.00,Weather View 32 v70,2013-08-01 03:48:00,
2013-07-31 21:52:00,83.0,38.9,30.11,NW,315,4.0,6.0,21,0.00,,,0.00,Weather View 32 v70,2013-08-01 03:52:00,
2013-07-31 21:57:00,83.0,37.7,30.11,NW,315,1.0,6.0,20,0.00,,,0.00,Weather View 32 v70,2013-08-01 03:57:00,
2013-07-31 22:01:00,83.0,37.7,30.11,NW,315,1.0,6.0,20,0.00,,,0.00,Weather View 32 v70,2013-08-01 04:01:00,
2013-07-31 22:02:00,83.0,37.7,30.11,NW,315,1.0,6.0,20,0.00,,,0.00,Weather View 32 v70,2013-08-01 04:02:00,
2013-07-31 22:07:00,83.0,37.7,30.12,NW,315,1.0,6.0,20,0.00,,,0.00,Weather View 32 v70,2013-08-01 04:07:00,
2013-07-31 22:12:00,82.0,39.3,30.12,NW,315,0.0,6.0,22,0.00,,,0.00,Weather View 32 v70,2013-08-01 04:12:00,
2013-07-31 22:17:00,82.0,39.3,30.12,NW,315,0.0,6.0,22,0.00,,,0.00,Weather View 32 v70,2013-08-01 04:17:00,
2013-07-31 22:22:00,82.0,41.5,30.12,NW,315,3.0,6.0,24,0.00,,,0.00,Weather View 32 v70,2013-08-01 04:22:00,
2013-07-31 22:27:00,82.0,41.5,30.12,NNW,337,4.0,7.0,24,0.00,,,0.00,Weather View 32 v70,2013-08-01 04:27:00,
2013-07-31 22:32:00,81.0,39.6,30.12,NNW,337,3.0,7.0,23,0.00,,,0.00,Weather View 32 v70,2013-08-01 04:32:00,
2013-07-31 22:37:00,81.0,36.0,30.12,NNW,337,3.0,7.0,20,0.00,,,0.00,Weather View 32 v70,2013-08-01 04:37:00,
2013-07-31 22:42:00,81.0,36.0,30.12,NNW,337,0.0,7.0,20,0.00,,,0.00,Weather View 32 v70,2013-08-01 04:42:00,
2013-07-31 22:47:00,81.0,37.3,30.12,NNW,337,0.0,7.0,21,0.00,,,0.00,Weather View 32 v70,2013-08-01 04:47:00,
2013-07-31 22:52:00,81.0,37.3,30.12,NNW,337,0.0,7.0,21,0.00,,,0.00,Weather View 32 v70,2013-08-01 04:52:00,
2013-07-31 22:57:00,81.0,37.3,30.13,NNW,337,0.0,7.0,21,0.00,,,0.00,Weather View 32 v70,2013-08-01 04:57:00,
2013-07-31 23:02:00,80.0,38.8,30.13,NNW,337,0.0,7.0,23,0.00,,,0.00,Weather View 32 v70,2013-08-01 05:02:00,
2013-07-31 23:07:00,80.0,39.9,30.12,NNW,337,0.0,7.0,24,0.00,,,0.00,Weather View 32 v70,2013-08-01 05:07:00,
2013-07-31 23:12:00,79.0,39.0,30.12,NNW,337,0.0,7.0,24,0.00,,,0.00,Weather View 32 v70,2013-08-01 05:12:00,
2013-07-31 23:17:00,79.0,37.9,30.12,NNW,337,0.0,7.0,23,0.00,,,0.00,Weather View 32 v70,2013-08-01 05:17:00,
2013-07-31 23:22:00,79.0,42.1,30.12,NE,45,3.0,7.0,27,0.00,,,0.00,Weather View 32 v70,2013-08-01 05:22:00,
2013-07-31 23:27:00,79.0,41.1,30.13,East,90,5.0,6.0,26,0.00,,,0.00,Weather View 32 v70,2013-08-01 05:27:00,
2013-07-31 23:32:00,79.0,42.1,30.13,SE,135,6.0,6.0,27,0.00,,,0.00,Weather View 32 v70,2013-08-01 05:32:00,
2013-07-31 23:37:00,79.0,42.1,30.14,ESE,112,5.0,7.0,27,0.00,,,0.00,Weather View 32 v70,2013-08-01 05:37:00,
2013-07-31 23:42:00,79.0,42.1,30.14,SSW,202,3.0,8.0,27,0.00,,,0.00,Weather View 32 v70,2013-08-01 05:42:00,
2013-07-31 23:47:00,79.0,41.1,30.13,South,180,4.0,8.0,26,0.00,,,0.00,Weather View 32 v70,2013-08-01 05:47:00,
2013-07-31 23:52:00,79.0,42.1,30.13,South,180,0.0,8.0,27,0.00,,,0.00,Weather View 32 v70,2013-08-01 05:52:00,
2013-07-31 23:57:00,79.0,42.1,30.14,SW,225,5.0,8.0,27,0.00,,,0.00,Weather View 32 v70,2013-08-01 05:57:00,